sensor_id;sensor_type;location;lat;lon;timestamp;P1;durP1;ratioP1;P2;durP2;ratioP2
13267;SDS011;6702;47.068;15.458;2022-11-11T00:00:21;7.27;;;6.53;;
13267;SDS011;6702;47.068;15.458;2022-11-11T00:03:24;8.20;;;7.20;;
13267;SDS011;6702;47.068;15.458;2022-11-11T00:06:28;8.97;;;8.13;;
13267;SDS011;6702;47.068;15.458;2022-11-11T00:09:32;8.03;;;6.93;;
13267;SDS011;6702;47.068;15.458;2022-11-11T00:12:37;9.93;;;8.00;;
13267;SDS011;6702;47.068;15.458;2022-11-11T00:15:40;8.10;;;7.30;;
13267;SDS011;6702;47.068;15.458;2022-11-11T00:18:44;10.20;;;8.40;;
13267;SDS011;6702;47.068;15.458;2022-11-11T00:22:06;8.67;;;7.77;;
13267;SDS011;6702;47.068;15.458;2022-11-11T00:25:38;8.17;;;7.23;;
13267;SDS011;6702;47.068;15.458;2022-11-11T00:28:42;9.13;;;7.93;;
13267;SDS011;6702;47.068;15.458;2022-11-11T00:31:46;12.33;;;11.03;;
13267;SDS011;6702;47.068;15.458;2022-11-11T00:35:06;12.60;;;11.30;;
13267;SDS011;6702;47.068;15.458;2022-11-11T00:38:28;13.53;;;12.13;;
13267;SDS011;6702;47.068;15.458;2022-11-11T00:41:47;18.07;;;15.47;;
13267;SDS011;6702;47.068;15.458;2022-11-11T00:44:51;16.40;;;14.80;;
13267;SDS011;6702;47.068;15.458;2022-11-11T00:47:54;15.80;;;14.30;;
13267;SDS011;6702;47.068;15.458;2022-11-11T00:51:15;15.83;;;14.23;;
13267;SDS011;6702;47.068;15.458;2022-11-11T00:54:18;18.33;;;15.00;;
13267;SDS011;6702;47.068;15.458;2022-11-11T00:57:21;16.80;;;15.27;;
13267;SDS011;6702;47.068;15.458;2022-11-11T01:00:26;16.70;;;15.10;;
13267;SDS011;6702;47.068;15.458;2022-11-11T01:03:29;15.70;;;14.30;;
13267;SDS011;6702;47.068;15.458;2022-11-11T01:06:32;16.07;;;14.57;;
13267;SDS011;6702;47.068;15.458;2022-11-11T01:09:35;17.80;;;16.10;;
13267;SDS011;6702;47.068;15.458;2022-11-11T01:12:38;17.17;;;13.70;;
13267;SDS011;6702;47.068;15.458;2022-11-11T01:15:44;18.17;;;16.30;;
13267;SDS011;6702;47.068;15.458;2022-11-11T01:18:49;17.57;;;14.73;;
13267;SDS011;6702;47.068;15.458;2022-11-11T01:21:53;15.67;;;14.37;;
13267;SDS011;6702;47.068;15.458;2022-11-11T01:24:56;17.50;;;15.90;;
13267;SDS011;6702;47.068;15.458;2022-11-11T01:27:59;16.70;;;15.00;;
13267;SDS011;6702;47.068;15.458;2022-11-11T01:31:04;15.93;;;14.40;;
13267;SDS011;6702;47.068;15.458;2022-11-11T01:34:09;15.10;;;13.80;;
13267;SDS011;6702;47.068;15.458;2022-11-11T01:37:12;14.53;;;13.03;;
13267;SDS011;6702;47.068;15.458;2022-11-11T01:40:15;14.00;;;12.70;;
13267;SDS011;6702;47.068;15.458;2022-11-11T01:43:20;13.40;;;12.20;;
13267;SDS011;6702;47.068;15.458;2022-11-11T01:46:33;16.47;;;14.77;;
13267;SDS011;6702;47.068;15.458;2022-11-11T01:49:40;16.73;;;15.17;;
13267;SDS011;6702;47.068;15.458;2022-11-11T01:52:50;15.00;;;13.60;;
13267;SDS011;6702;47.068;15.458;2022-11-11T01:55:53;16.13;;;14.63;;
13267;SDS011;6702;47.068;15.458;2022-11-11T01:58:57;13.40;;;12.10;;
13267;SDS011;6702;47.068;15.458;2022-11-11T02:02:08;13.07;;;11.87;;
13267;SDS011;6702;47.068;15.458;2022-11-11T02:05:17;13.50;;;12.20;;
13267;SDS011;6702;47.068;15.458;2022-11-11T02:08:40;12.07;;;11.17;;
13267;SDS011;6702;47.068;15.458;2022-11-11T02:11:45;12.40;;;11.20;;
13267;SDS011;6702;47.068;15.458;2022-11-11T02:15:06;11.20;;;10.03;;
13267;SDS011;6702;47.068;15.458;2022-11-11T02:18:11;13.33;;;12.10;;
13267;SDS011;6702;47.068;15.458;2022-11-11T02:21:15;15.40;;;14.00;;
13267;SDS011;6702;47.068;15.458;2022-11-11T02:24:24;14.70;;;13.30;;
13267;SDS011;6702;47.068;15.458;2022-11-11T02:27:29;14.20;;;13.00;;
13267;SDS011;6702;47.068;15.458;2022-11-11T02:30:36;12.93;;;11.83;;
13267;SDS011;6702;47.068;15.458;2022-11-11T02:33:39;13.67;;;12.37;;
13267;SDS011;6702;47.068;15.458;2022-11-11T02:36:42;13.13;;;12.10;;
13267;SDS011;6702;47.068;15.458;2022-11-11T02:39:48;14.10;;;12.87;;
13267;SDS011;6702;47.068;15.458;2022-11-11T02:43:09;15.17;;;13.97;;
13267;SDS011;6702;47.068;15.458;2022-11-11T02:46:12;13.37;;;12.27;;
13267;SDS011;6702;47.068;15.458;2022-11-11T02:49:15;12.87;;;11.67;;
13267;SDS011;6702;47.068;15.458;2022-11-11T02:52:19;13.20;;;12.00;;
13267;SDS011;6702;47.068;15.458;2022-11-11T02:55:23;14.10;;;12.67;;
13267;SDS011;6702;47.068;15.458;2022-11-11T02:58:26;13.03;;;11.67;;
13267;SDS011;6702;47.068;15.458;2022-11-11T03:01:30;13.97;;;11.70;;
13267;SDS011;6702;47.068;15.458;2022-11-11T03:04:33;13.30;;;12.20;;
13267;SDS011;6702;47.068;15.458;2022-11-11T03:07:37;13.27;;;12.17;;
13267;SDS011;6702;47.068;15.458;2022-11-11T03:10:42;13.00;;;11.90;;
13267;SDS011;6702;47.068;15.458;2022-11-11T03:13:45;13.80;;;12.60;;
13267;SDS011;6702;47.068;15.458;2022-11-11T03:16:48;13.17;;;11.97;;
13267;SDS011;6702;47.068;15.458;2022-11-11T03:20:10;12.40;;;11.50;;
13267;SDS011;6702;47.068;15.458;2022-11-11T03:23:32;13.10;;;11.90;;
13267;SDS011;6702;47.068;15.458;2022-11-11T03:26:36;13.33;;;12.13;;
13267;SDS011;6702;47.068;15.458;2022-11-11T03:29:39;12.70;;;11.57;;
13267;SDS011;6702;47.068;15.458;2022-11-11T03:32:43;12.60;;;11.40;;
13267;SDS011;6702;47.068;15.458;2022-11-11T03:35:46;12.70;;;11.60;;
13267;SDS011;6702;47.068;15.458;2022-11-11T03:38:49;11.63;;;10.73;;
13267;SDS011;6702;47.068;15.458;2022-11-11T03:41:53;11.70;;;10.60;;
13267;SDS011;6702;47.068;15.458;2022-11-11T03:44:56;14.30;;;12.93;;
13267;SDS011;6702;47.068;15.458;2022-11-11T03:47:59;15.27;;;13.87;;
13267;SDS011;6702;47.068;15.458;2022-11-11T03:51:02;17.10;;;14.20;;
13267;SDS011;6702;47.068;15.458;2022-11-11T03:54:05;19.13;;;13.23;;
13267;SDS011;6702;47.068;15.458;2022-11-11T03:57:10;14.77;;;13.57;;
13267;SDS011;6702;47.068;15.458;2022-11-11T04:00:31;13.27;;;12.17;;
13267;SDS011;6702;47.068;15.458;2022-11-11T04:03:34;11.03;;;10.03;;
13267;SDS011;6702;47.068;15.458;2022-11-11T04:06:55;13.93;;;12.83;;
13267;SDS011;6702;47.068;15.458;2022-11-11T04:10:16;12.37;;;11.07;;
13267;SDS011;6702;47.068;15.458;2022-11-11T04:13:26;11.30;;;10.40;;
13267;SDS011;6702;47.068;15.458;2022-11-11T04:16:47;12.10;;;11.00;;
13267;SDS011;6702;47.068;15.458;2022-11-11T04:19:50;11.87;;;10.67;;
13267;SDS011;6702;47.068;15.458;2022-11-11T04:23:13;10.67;;;9.73;;
13267;SDS011;6702;47.068;15.458;2022-11-11T04:26:16;10.87;;;9.97;;
13267;SDS011;6702;47.068;15.458;2022-11-11T04:29:20;11.33;;;9.57;;
13267;SDS011;6702;47.068;15.458;2022-11-11T04:32:32;11.40;;;10.40;;
13267;SDS011;6702;47.068;15.458;2022-11-11T04:35:40;10.53;;;9.43;;
13267;SDS011;6702;47.068;15.458;2022-11-11T04:38:43;11.97;;;10.10;;
13267;SDS011;6702;47.068;15.458;2022-11-11T04:42:03;7.90;;;7.20;;
13267;SDS011;6702;47.068;15.458;2022-11-11T04:45:11;8.60;;;6.90;;
13267;SDS011;6702;47.068;15.458;2022-11-11T04:48:32;9.30;;;7.40;;
13267;SDS011;6702;47.068;15.458;2022-11-11T04:51:35;8.87;;;8.17;;
13267;SDS011;6702;47.068;15.458;2022-11-11T04:54:52;6.50;;;5.90;;
13267;SDS011;6702;47.068;15.458;2022-11-11T04:58:09;10.57;;;6.50;;
13267;SDS011;6702;47.068;15.458;2022-11-11T05:01:14;6.93;;;6.23;;
13267;SDS011;6702;47.068;15.458;2022-11-11T05:04:37;6.40;;;5.90;;
13267;SDS011;6702;47.068;15.458;2022-11-11T05:07:39;5.70;;;5.10;;
13267;SDS011;6702;47.068;15.458;2022-11-11T05:10:59;5.10;;;4.70;;
13267;SDS011;6702;47.068;15.458;2022-11-11T05:14:03;5.40;;;4.90;;
13267;SDS011;6702;47.068;15.458;2022-11-11T05:17:25;5.93;;;4.67;;
13267;SDS011;6702;47.068;15.458;2022-11-11T05:20:46;5.60;;;5.03;;
13267;SDS011;6702;47.068;15.458;2022-11-11T05:24:07;8.43;;;5.33;;
13267;SDS011;6702;47.068;15.458;2022-11-11T05:27:28;8.63;;;7.73;;
13267;SDS011;6702;47.068;15.458;2022-11-11T05:30:31;7.80;;;6.47;;
13267;SDS011;6702;47.068;15.458;2022-11-11T05:33:37;8.50;;;7.00;;
13267;SDS011;6702;47.068;15.458;2022-11-11T05:36:40;6.50;;;5.60;;
13267;SDS011;6702;47.068;15.458;2022-11-11T05:39:43;5.83;;;5.33;;
13267;SDS011;6702;47.068;15.458;2022-11-11T05:42:47;6.57;;;5.43;;
13267;SDS011;6702;47.068;15.458;2022-11-11T05:45:54;6.27;;;5.50;;
13267;SDS011;6702;47.068;15.458;2022-11-11T05:48:59;8.10;;;6.83;;
13267;SDS011;6702;47.068;15.458;2022-11-11T05:52:17;7.63;;;6.47;;
13267;SDS011;6702;47.068;15.458;2022-11-11T05:55:20;8.17;;;6.93;;
13267;SDS011;6702;47.068;15.458;2022-11-11T05:58:23;6.90;;;5.90;;
13267;SDS011;6702;47.068;15.458;2022-11-11T06:01:27;6.90;;;6.40;;
13267;SDS011;6702;47.068;15.458;2022-11-11T06:04:31;7.97;;;7.17;;
13267;SDS011;6702;47.068;15.458;2022-11-11T06:07:36;7.80;;;7.00;;
13267;SDS011;6702;47.068;15.458;2022-11-11T06:10:41;9.97;;;7.67;;
13267;SDS011;6702;47.068;15.458;2022-11-11T06:13:44;15.03;;;10.83;;
13267;SDS011;6702;47.068;15.458;2022-11-11T06:16:48;11.80;;;10.70;;
13267;SDS011;6702;47.068;15.458;2022-11-11T06:19:52;11.77;;;10.77;;
13267;SDS011;6702;47.068;15.458;2022-11-11T06:22:55;12.37;;;11.20;;
13267;SDS011;6702;47.068;15.458;2022-11-11T06:25:59;12.40;;;11.13;;
13267;SDS011;6702;47.068;15.458;2022-11-11T06:29:14;12.40;;;11.30;;
13267;SDS011;6702;47.068;15.458;2022-11-11T06:32:17;11.70;;;10.60;;
13267;SDS011;6702;47.068;15.458;2022-11-11T06:35:21;15.90;;;14.20;;
13267;SDS011;6702;47.068;15.458;2022-11-11T06:38:24;13.30;;;11.83;;
13267;SDS011;6702;47.068;15.458;2022-11-11T06:41:28;12.37;;;11.27;;
13267;SDS011;6702;47.068;15.458;2022-11-11T06:44:31;12.20;;;11.27;;
13267;SDS011;6702;47.068;15.458;2022-11-11T06:47:34;14.10;;;11.60;;
13267;SDS011;6702;47.068;15.458;2022-11-11T06:50:38;15.50;;;14.13;;
13267;SDS011;6702;47.068;15.458;2022-11-11T06:53:41;13.30;;;12.00;;
13267;SDS011;6702;47.068;15.458;2022-11-11T06:56:46;12.50;;;11.30;;
13267;SDS011;6702;47.068;15.458;2022-11-11T06:59:49;11.30;;;10.20;;
13267;SDS011;6702;47.068;15.458;2022-11-11T07:02:53;12.57;;;11.37;;
13267;SDS011;6702;47.068;15.458;2022-11-11T07:06:00;21.03;;;16.40;;
13267;SDS011;6702;47.068;15.458;2022-11-11T07:09:03;15.20;;;11.83;;
13267;SDS011;6702;47.068;15.458;2022-11-11T07:12:07;14.23;;;12.83;;
13267;SDS011;6702;47.068;15.458;2022-11-11T07:15:10;14.13;;;11.80;;
13267;SDS011;6702;47.068;15.458;2022-11-11T07:18:13;14.43;;;12.17;;
13267;SDS011;6702;47.068;15.458;2022-11-11T07:21:18;13.43;;;11.17;;
13267;SDS011;6702;47.068;15.458;2022-11-11T07:24:21;14.10;;;12.70;;
13267;SDS011;6702;47.068;15.458;2022-11-11T07:27:24;11.80;;;10.70;;
13267;SDS011;6702;47.068;15.458;2022-11-11T07:30:27;13.43;;;12.03;;
13267;SDS011;6702;47.068;15.458;2022-11-11T07:33:30;12.67;;;11.03;;
13267;SDS011;6702;47.068;15.458;2022-11-11T07:36:35;11.90;;;10.77;;
13267;SDS011;6702;47.068;15.458;2022-11-11T07:39:38;13.73;;;11.23;;
13267;SDS011;6702;47.068;15.458;2022-11-11T07:42:41;13.73;;;12.43;;
13267;SDS011;6702;47.068;15.458;2022-11-11T07:45:45;31.67;;;28.27;;
13267;SDS011;6702;47.068;15.458;2022-11-11T07:48:48;18.77;;;16.33;;
13267;SDS011;6702;47.068;15.458;2022-11-11T07:51:52;15.57;;;14.07;;
13267;SDS011;6702;47.068;15.458;2022-11-11T07:54:56;14.73;;;13.43;;
13267;SDS011;6702;47.068;15.458;2022-11-11T07:57:59;12.93;;;11.83;;
13267;SDS011;6702;47.068;15.458;2022-11-11T08:01:02;25.03;;;20.30;;
13267;SDS011;6702;47.068;15.458;2022-11-11T08:04:09;42.60;;;23.80;;
13267;SDS011;6702;47.068;15.458;2022-11-11T08:07:14;21.77;;;17.70;;
13267;SDS011;6702;47.068;15.458;2022-11-11T08:10:23;16.87;;;14.80;;
13267;SDS011;6702;47.068;15.458;2022-11-11T08:13:26;27.67;;;22.20;;
13267;SDS011;6702;47.068;15.458;2022-11-11T08:16:44;23.30;;;18.20;;
13267;SDS011;6702;47.068;15.458;2022-11-11T08:19:47;17.50;;;15.73;;
13267;SDS011;6702;47.068;15.458;2022-11-11T08:22:52;22.23;;;18.33;;
13267;SDS011;6702;47.068;15.458;2022-11-11T08:26:17;22.03;;;17.27;;
13267;SDS011;6702;47.068;15.458;2022-11-11T08:29:29;18.20;;;16.30;;
13267;SDS011;6702;47.068;15.458;2022-11-11T08:32:32;14.93;;;13.40;;
13267;SDS011;6702;47.068;15.458;2022-11-11T08:35:35;12.60;;;11.33;;
13267;SDS011;6702;47.068;15.458;2022-11-11T08:38:40;14.40;;;12.90;;
13267;SDS011;6702;47.068;15.458;2022-11-11T08:41:43;11.80;;;10.53;;
13267;SDS011;6702;47.068;15.458;2022-11-11T08:44:46;12.47;;;10.57;;
13267;SDS011;6702;47.068;15.458;2022-11-11T08:47:49;12.03;;;10.23;;
13267;SDS011;6702;47.068;15.458;2022-11-11T08:50:52;11.40;;;10.20;;
13267;SDS011;6702;47.068;15.458;2022-11-11T08:53:57;12.60;;;11.40;;
13267;SDS011;6702;47.068;15.458;2022-11-11T08:57:00;13.63;;;12.23;;
13267;SDS011;6702;47.068;15.458;2022-11-11T09:00:04;17.70;;;14.10;;
13267;SDS011;6702;47.068;15.458;2022-11-11T09:03:09;17.10;;;14.47;;
13267;SDS011;6702;47.068;15.458;2022-11-11T09:06:13;19.63;;;17.40;;
13267;SDS011;6702;47.068;15.458;2022-11-11T09:09:18;23.90;;;21.10;;
13267;SDS011;6702;47.068;15.458;2022-11-11T09:12:21;48.30;;;38.93;;
13267;SDS011;6702;47.068;15.458;2022-11-11T09:15:24;32.13;;;24.83;;
13267;SDS011;6702;47.068;15.458;2022-11-11T09:18:28;32.77;;;25.17;;
13267;SDS011;6702;47.068;15.458;2022-11-11T09:21:32;41.33;;;32.27;;
13267;SDS011;6702;47.068;15.458;2022-11-11T09:24:37;39.27;;;31.83;;
13267;SDS011;6702;47.068;15.458;2022-11-11T09:27:40;29.73;;;25.80;;
13267;SDS011;6702;47.068;15.458;2022-11-11T09:30:43;36.20;;;25.30;;
13267;SDS011;6702;47.068;15.458;2022-11-11T09:33:46;27.90;;;25.00;;
13267;SDS011;6702;47.068;15.458;2022-11-11T09:36:50;22.10;;;19.93;;
13267;SDS011;6702;47.068;15.458;2022-11-11T09:39:54;26.23;;;21.00;;
13267;SDS011;6702;47.068;15.458;2022-11-11T09:43:00;30.20;;;20.13;;
13267;SDS011;6702;47.068;15.458;2022-11-11T09:46:16;22.70;;;19.20;;
13267;SDS011;6702;47.068;15.458;2022-11-11T09:49:38;21.40;;;19.40;;
13267;SDS011;6702;47.068;15.458;2022-11-11T09:52:54;17.27;;;15.60;;
13267;SDS011;6702;47.068;15.458;2022-11-11T09:56:05;22.50;;;15.40;;
13267;SDS011;6702;47.068;15.458;2022-11-11T09:59:32;20.20;;;16.40;;
13267;SDS011;6702;47.068;15.458;2022-11-11T10:02:45;20.07;;;15.80;;
13267;SDS011;6702;47.068;15.458;2022-11-11T10:05:54;16.13;;;14.10;;
13267;SDS011;6702;47.068;15.458;2022-11-11T10:09:02;19.33;;;14.30;;
13267;SDS011;6702;47.068;15.458;2022-11-11T10:12:14;20.60;;;17.60;;
13267;SDS011;6702;47.068;15.458;2022-11-11T10:15:18;20.17;;;17.30;;
13267;SDS011;6702;47.068;15.458;2022-11-11T10:18:25;27.30;;;19.37;;
13267;SDS011;6702;47.068;15.458;2022-11-11T10:21:39;25.90;;;18.20;;
13267;SDS011;6702;47.068;15.458;2022-11-11T10:25:07;25.17;;;17.20;;
13267;SDS011;6702;47.068;15.458;2022-11-11T10:28:25;17.23;;;15.17;;
13267;SDS011;6702;47.068;15.458;2022-11-11T10:31:31;18.03;;;12.80;;
13267;SDS011;6702;47.068;15.458;2022-11-11T10:34:36;17.37;;;13.90;;
13267;SDS011;6702;47.068;15.458;2022-11-11T10:37:39;23.60;;;17.37;;
13267;SDS011;6702;47.068;15.458;2022-11-11T10:40:45;17.27;;;15.00;;
13267;SDS011;6702;47.068;15.458;2022-11-11T10:43:52;15.70;;;13.30;;
13267;SDS011;6702;47.068;15.458;2022-11-11T10:46:57;17.63;;;14.63;;
13267;SDS011;6702;47.068;15.458;2022-11-11T10:50:07;24.23;;;15.13;;
13267;SDS011;6702;47.068;15.458;2022-11-11T10:53:16;24.87;;;20.00;;
13267;SDS011;6702;47.068;15.458;2022-11-11T10:56:25;15.23;;;13.83;;
13267;SDS011;6702;47.068;15.458;2022-11-11T10:59:36;15.37;;;13.53;;
13267;SDS011;6702;47.068;15.458;2022-11-11T11:02:47;15.60;;;13.50;;
13267;SDS011;6702;47.068;15.458;2022-11-11T11:05:58;15.80;;;13.53;;
13267;SDS011;6702;47.068;15.458;2022-11-11T11:09:09;14.60;;;12.80;;
13267;SDS011;6702;47.068;15.458;2022-11-11T11:12:17;14.90;;;13.30;;
13267;SDS011;6702;47.068;15.458;2022-11-11T11:15:27;14.90;;;13.27;;
13267;SDS011;6702;47.068;15.458;2022-11-11T11:18:33;15.30;;;13.67;;
13267;SDS011;6702;47.068;15.458;2022-11-11T11:21:50;14.73;;;12.80;;
13267;SDS011;6702;47.068;15.458;2022-11-11T11:25:00;16.73;;;13.47;;
13267;SDS011;6702;47.068;15.458;2022-11-11T11:28:12;17.77;;;12.20;;
13267;SDS011;6702;47.068;15.458;2022-11-11T11:31:17;13.63;;;12.23;;
13267;SDS011;6702;47.068;15.458;2022-11-11T11:34:43;13.50;;;11.73;;
13267;SDS011;6702;47.068;15.458;2022-11-11T11:37:49;12.97;;;11.57;;
13267;SDS011;6702;47.068;15.458;2022-11-11T11:40:53;13.43;;;12.23;;
13267;SDS011;6702;47.068;15.458;2022-11-11T11:43:57;14.67;;;12.50;;
13267;SDS011;6702;47.068;15.458;2022-11-11T11:50:35;13.03;;;11.17;;
13267;SDS011;6702;47.068;15.458;2022-11-11T11:53:46;13.17;;;11.80;;
13267;SDS011;6702;47.068;15.458;2022-11-11T11:57:02;17.73;;;11.33;;
13267;SDS011;6702;47.068;15.458;2022-11-11T12:00:13;15.53;;;11.80;;
13267;SDS011;6702;47.068;15.458;2022-11-11T12:03:34;13.30;;;12.00;;
13267;SDS011;6702;47.068;15.458;2022-11-11T12:07:01;13.50;;;11.10;;
13267;SDS011;6702;47.068;15.458;2022-11-11T12:10:19;17.00;;;12.27;;
13267;SDS011;6702;47.068;15.458;2022-11-11T12:13:33;18.03;;;12.47;;
13267;SDS011;6702;47.068;15.458;2022-11-11T12:16:49;18.00;;;12.57;;
13267;SDS011;6702;47.068;15.458;2022-11-11T12:19:59;15.80;;;14.10;;
13267;SDS011;6702;47.068;15.458;2022-11-11T12:23:26;70.77;;;63.20;;
13267;SDS011;6702;47.068;15.458;2022-11-11T12:26:46;40.87;;;36.00;;
13267;SDS011;6702;47.068;15.458;2022-11-11T12:29:58;19.27;;;16.67;;
13267;SDS011;6702;47.068;15.458;2022-11-11T12:33:14;14.10;;;12.80;;
13267;SDS011;6702;47.068;15.458;2022-11-11T12:36:37;12.20;;;11.00;;
13267;SDS011;6702;47.068;15.458;2022-11-11T12:39:49;12.93;;;10.13;;
13267;SDS011;6702;47.068;15.458;2022-11-11T12:43:03;9.37;;;8.30;;
13267;SDS011;6702;47.068;15.458;2022-11-11T12:46:18;12.03;;;9.03;;
13267;SDS011;6702;47.068;15.458;2022-11-11T12:49:32;11.83;;;10.73;;
13267;SDS011;6702;47.068;15.458;2022-11-11T12:52:48;10.03;;;9.20;;
13267;SDS011;6702;47.068;15.458;2022-11-11T12:56:09;11.90;;;9.17;;
13267;SDS011;6702;47.068;15.458;2022-11-11T12:59:28;9.13;;;8.33;;
13267;SDS011;6702;47.068;15.458;2022-11-11T13:02:49;17.50;;;16.00;;
13267;SDS011;6702;47.068;15.458;2022-11-11T13:06:09;19.07;;;17.10;;
13267;SDS011;6702;47.068;15.458;2022-11-11T13:09:27;15.53;;;13.63;;
13267;SDS011;6702;47.068;15.458;2022-11-11T13:12:38;23.40;;;20.90;;
13267;SDS011;6702;47.068;15.458;2022-11-11T13:15:46;20.30;;;18.40;;
13267;SDS011;6702;47.068;15.458;2022-11-11T13:18:50;17.50;;;15.80;;
13267;SDS011;6702;47.068;15.458;2022-11-11T13:21:58;21.70;;;19.60;;
13267;SDS011;6702;47.068;15.458;2022-11-11T13:25:12;26.23;;;18.93;;
13267;SDS011;6702;47.068;15.458;2022-11-11T13:28:22;18.27;;;16.20;;
13267;SDS011;6702;47.068;15.458;2022-11-11T13:31:30;26.70;;;20.33;;
13267;SDS011;6702;47.068;15.458;2022-11-11T13:34:37;24.73;;;18.70;;
13267;SDS011;6702;47.068;15.458;2022-11-11T13:37:42;19.23;;;16.40;;
13267;SDS011;6702;47.068;15.458;2022-11-11T13:40:48;21.27;;;19.20;;
13267;SDS011;6702;47.068;15.458;2022-11-11T13:43:55;17.27;;;15.50;;
13267;SDS011;6702;47.068;15.458;2022-11-11T13:47:01;17.90;;;13.47;;
13267;SDS011;6702;47.068;15.458;2022-11-11T13:50:07;15.03;;;12.27;;
13267;SDS011;6702;47.068;15.458;2022-11-11T13:53:15;18.93;;;15.77;;
13267;SDS011;6702;47.068;15.458;2022-11-11T13:56:33;27.80;;;19.47;;
13267;SDS011;6702;47.068;15.458;2022-11-11T13:59:40;18.17;;;13.27;;
13267;SDS011;6702;47.068;15.458;2022-11-11T14:02:45;22.13;;;14.03;;
13267;SDS011;6702;47.068;15.458;2022-11-11T14:05:48;17.27;;;13.60;;
13267;SDS011;6702;47.068;15.458;2022-11-11T14:13:10;17.43;;;15.70;;
13267;SDS011;6702;47.068;15.458;2022-11-11T14:23:39;19.13;;;17.23;;
13267;SDS011;6702;47.068;15.458;2022-11-11T14:26:43;20.30;;;16.77;;
13267;SDS011;6702;47.068;15.458;2022-11-11T14:30:00;16.37;;;14.70;;
13267;SDS011;6702;47.068;15.458;2022-11-11T14:33:06;22.63;;;14.40;;
13267;SDS011;6702;47.068;15.458;2022-11-11T14:36:18;15.27;;;13.27;;
13267;SDS011;6702;47.068;15.458;2022-11-11T14:39:31;14.70;;;13.30;;
13267;SDS011;6702;47.068;15.458;2022-11-11T14:42:45;14.90;;;12.83;;
13267;SDS011;6702;47.068;15.458;2022-11-11T14:45:52;15.80;;;11.10;;
13267;SDS011;6702;47.068;15.458;2022-11-11T14:49:03;16.30;;;11.90;;
13267;SDS011;6702;47.068;15.458;2022-11-11T14:52:12;14.73;;;11.57;;
13267;SDS011;6702;47.068;15.458;2022-11-11T14:55:24;11.33;;;10.10;;
13267;SDS011;6702;47.068;15.458;2022-11-11T14:58:32;14.80;;;12.03;;
13267;SDS011;6702;47.068;15.458;2022-11-11T15:01:37;13.70;;;10.70;;
13267;SDS011;6702;47.068;15.458;2022-11-11T15:04:41;15.13;;;11.40;;
13267;SDS011;6702;47.068;15.458;2022-11-11T15:07:51;13.60;;;11.67;;
13267;SDS011;6702;47.068;15.458;2022-11-11T15:11:15;15.53;;;12.00;;
13267;SDS011;6702;47.068;15.458;2022-11-11T15:14:30;13.33;;;10.70;;
13267;SDS011;6702;47.068;15.458;2022-11-11T15:17:47;12.13;;;10.77;;
13267;SDS011;6702;47.068;15.458;2022-11-11T15:21:00;12.97;;;10.20;;
13267;SDS011;6702;47.068;15.458;2022-11-11T15:24:12;14.10;;;10.80;;
13267;SDS011;6702;47.068;15.458;2022-11-11T15:27:27;15.53;;;11.20;;
13267;SDS011;6702;47.068;15.458;2022-11-11T15:30:42;13.20;;;11.87;;
13267;SDS011;6702;47.068;15.458;2022-11-11T15:33:56;16.93;;;13.50;;
13267;SDS011;6702;47.068;15.458;2022-11-11T15:37:08;13.07;;;11.67;;
13267;SDS011;6702;47.068;15.458;2022-11-11T15:40:17;16.80;;;12.63;;
13267;SDS011;6702;47.068;15.458;2022-11-11T15:43:22;14.90;;;13.07;;
13267;SDS011;6702;47.068;15.458;2022-11-11T15:46:29;13.87;;;12.40;;
13267;SDS011;6702;47.068;15.458;2022-11-11T15:49:39;17.47;;;14.00;;
13267;SDS011;6702;47.068;15.458;2022-11-11T15:52:44;18.40;;;14.97;;
13267;SDS011;6702;47.068;15.458;2022-11-11T15:55:50;19.90;;;16.20;;
13267;SDS011;6702;47.068;15.458;2022-11-11T15:58:55;21.37;;;17.70;;
13267;SDS011;6702;47.068;15.458;2022-11-11T16:01:59;21.33;;;16.57;;
13267;SDS011;6702;47.068;15.458;2022-11-11T16:05:14;22.00;;;15.53;;
13267;SDS011;6702;47.068;15.458;2022-11-11T16:08:21;18.70;;;14.17;;
13267;SDS011;6702;47.068;15.458;2022-11-11T16:11:25;19.40;;;16.30;;
13267;SDS011;6702;47.068;15.458;2022-11-11T16:14:29;16.73;;;14.00;;
13267;SDS011;6702;47.068;15.458;2022-11-11T16:17:37;20.27;;;17.13;;
13267;SDS011;6702;47.068;15.458;2022-11-11T16:20:46;18.70;;;16.33;;
13267;SDS011;6702;47.068;15.458;2022-11-11T16:23:52;19.00;;;15.93;;
13267;SDS011;6702;47.068;15.458;2022-11-11T16:26:56;21.60;;;16.57;;
13267;SDS011;6702;47.068;15.458;2022-11-11T16:33:33;24.17;;;17.10;;
13267;SDS011;6702;47.068;15.458;2022-11-11T16:36:38;23.57;;;20.90;;
13267;SDS011;6702;47.068;15.458;2022-11-11T16:43:29;21.57;;;18.90;;
13267;SDS011;6702;47.068;15.458;2022-11-11T16:46:37;20.70;;;18.70;;
13267;SDS011;6702;47.068;15.458;2022-11-11T16:49:42;20.97;;;18.63;;
13267;SDS011;6702;47.068;15.458;2022-11-11T16:52:50;23.03;;;17.97;;
13267;SDS011;6702;47.068;15.458;2022-11-11T16:55:55;20.87;;;18.67;;
13267;SDS011;6702;47.068;15.458;2022-11-11T16:58:59;20.67;;;16.87;;
13267;SDS011;6702;47.068;15.458;2022-11-11T17:02:13;18.10;;;16.23;;
13267;SDS011;6702;47.068;15.458;2022-11-11T17:05:18;16.87;;;15.07;;
13267;SDS011;6702;47.068;15.458;2022-11-11T17:08:39;22.80;;;18.47;;
13267;SDS011;6702;47.068;15.458;2022-11-11T17:11:43;22.73;;;16.30;;
13267;SDS011;6702;47.068;15.458;2022-11-11T17:14:47;19.03;;;15.50;;
13267;SDS011;6702;47.068;15.458;2022-11-11T17:17:51;19.57;;;15.77;;
13267;SDS011;6702;47.068;15.458;2022-11-11T17:20:54;18.13;;;16.10;;
13267;SDS011;6702;47.068;15.458;2022-11-11T17:23:59;22.47;;;16.70;;
13267;SDS011;6702;47.068;15.458;2022-11-11T17:27:03;23.57;;;17.07;;
13267;SDS011;6702;47.068;15.458;2022-11-11T17:30:07;19.57;;;16.93;;
13267;SDS011;6702;47.068;15.458;2022-11-11T17:33:11;24.00;;;19.07;;
13267;SDS011;6702;47.068;15.458;2022-11-11T17:36:14;19.30;;;17.17;;
13267;SDS011;6702;47.068;15.458;2022-11-11T17:39:20;18.60;;;16.60;;
13267;SDS011;6702;47.068;15.458;2022-11-11T17:42:24;19.10;;;17.17;;
13267;SDS011;6702;47.068;15.458;2022-11-11T17:45:28;18.93;;;16.93;;
13267;SDS011;6702;47.068;15.458;2022-11-11T17:48:32;18.87;;;16.63;;
13267;SDS011;6702;47.068;15.458;2022-11-11T17:51:35;18.13;;;16.27;;
13267;SDS011;6702;47.068;15.458;2022-11-11T17:54:40;22.23;;;17.70;;
13267;SDS011;6702;47.068;15.458;2022-11-11T17:57:44;28.27;;;21.40;;
13267;SDS011;6702;47.068;15.458;2022-11-11T18:00:47;25.37;;;22.00;;
13267;SDS011;6702;47.068;15.458;2022-11-11T18:03:53;24.30;;;21.83;;
13267;SDS011;6702;47.068;15.458;2022-11-11T18:06:57;21.00;;;18.43;;
13267;SDS011;6702;47.068;15.458;2022-11-11T18:10:03;23.07;;;20.43;;
13267;SDS011;6702;47.068;15.458;2022-11-11T18:13:08;24.80;;;20.77;;
13267;SDS011;6702;47.068;15.458;2022-11-11T18:16:14;22.53;;;19.83;;
13267;SDS011;6702;47.068;15.458;2022-11-11T18:19:19;21.73;;;17.87;;
13267;SDS011;6702;47.068;15.458;2022-11-11T18:22:22;21.90;;;18.43;;
13267;SDS011;6702;47.068;15.458;2022-11-11T18:25:27;21.53;;;18.43;;
13267;SDS011;6702;47.068;15.458;2022-11-11T18:28:31;19.67;;;17.33;;
13267;SDS011;6702;47.068;15.458;2022-11-11T18:31:39;24.27;;;18.30;;
13267;SDS011;6702;47.068;15.458;2022-11-11T18:34:43;28.13;;;20.10;;
13267;SDS011;6702;47.068;15.458;2022-11-11T18:37:46;31.40;;;28.00;;
13267;SDS011;6702;47.068;15.458;2022-11-11T18:40:52;34.30;;;31.00;;
13267;SDS011;6702;47.068;15.458;2022-11-11T18:44:04;37.63;;;33.63;;
13267;SDS011;6702;47.068;15.458;2022-11-11T18:47:08;31.00;;;27.80;;